sensor_id;sensor_type;location;lat;lon;timestamp;P1;durP1;ratioP1;P2;durP2;ratioP2
11082;SDS011;5595;50.186;8.468;2022-11-14T00:00:09;2.47;;;0.30;;
11082;SDS011;5595;50.186;8.468;2022-11-14T00:02:37;0.30;;;0.30;;
11082;SDS011;5595;50.186;8.468;2022-11-14T00:05:06;0.50;;;0.50;;
11082;SDS011;5595;50.186;8.468;2022-11-14T00:07:34;2.17;;;0.53;;
11082;SDS011;5595;50.186;8.468;2022-11-14T00:10:01;2.40;;;0.90;;
11082;SDS011;5595;50.186;8.468;2022-11-14T00:12:28;1.07;;;0.73;;
11082;SDS011;5595;50.186;8.468;2022-11-14T00:14:54;1.40;;;0.30;;
11082;SDS011;5595;50.186;8.468;2022-11-14T00:17:21;1.13;;;0.43;;
11082;SDS011;5595;50.186;8.468;2022-11-14T00:19:50;0.70;;;0.57;;
11082;SDS011;5595;50.186;8.468;2022-11-14T00:22:18;0.87;;;0.67;;
11082;SDS011;5595;50.186;8.468;2022-11-14T00:24:45;1.60;;;0.43;;
11082;SDS011;5595;50.186;8.468;2022-11-14T00:27:13;0.40;;;0.40;;
11082;SDS011;5595;50.186;8.468;2022-11-14T00:29:40;0.63;;;0.30;;
11082;SDS011;5595;50.186;8.468;2022-11-14T00:32:07;0.30;;;0.30;;
11082;SDS011;5595;50.186;8.468;2022-11-14T00:34:33;1.90;;;0.50;;
11082;SDS011;5595;50.186;8.468;2022-11-14T00:37:00;0.70;;;0.40;;
11082;SDS011;5595;50.186;8.468;2022-11-14T00:39:28;0.27;;;0.27;;
11082;SDS011;5595;50.186;8.468;2022-11-14T00:41:55;0.43;;;0.40;;
11082;SDS011;5595;50.186;8.468;2022-11-14T00:44:22;1.23;;;0.47;;
11082;SDS011;5595;50.186;8.468;2022-11-14T00:46:49;0.20;;;0.20;;
11082;SDS011;5595;50.186;8.468;2022-11-14T00:49:18;0.53;;;0.50;;
11082;SDS011;5595;50.186;8.468;2022-11-14T00:51:45;0.50;;;0.50;;
11082;SDS011;5595;50.186;8.468;2022-11-14T00:54:12;0.50;;;0.40;;
11082;SDS011;5595;50.186;8.468;2022-11-14T00:56:40;0.40;;;0.40;;
11082;SDS011;5595;50.186;8.468;2022-11-14T00:59:08;0.60;;;0.60;;
11082;SDS011;5595;50.186;8.468;2022-11-14T01:01:35;0.83;;;0.60;;
11082;SDS011;5595;50.186;8.468;2022-11-14T01:04:02;0.87;;;0.57;;
11082;SDS011;5595;50.186;8.468;2022-11-14T01:06:29;0.60;;;0.60;;
11082;SDS011;5595;50.186;8.468;2022-11-14T01:08:56;0.47;;;0.30;;
11082;SDS011;5595;50.186;8.468;2022-11-14T01:11:23;0.73;;;0.33;;
11082;SDS011;5595;50.186;8.468;2022-11-14T01:13:51;0.30;;;0.27;;
11082;SDS011;5595;50.186;8.468;2022-11-14T01:16:18;1.63;;;0.90;;
11082;SDS011;5595;50.186;8.468;2022-11-14T01:18:45;0.30;;;0.30;;
11082;SDS011;5595;50.186;8.468;2022-11-14T01:21:12;0.50;;;0.40;;
11082;SDS011;5595;50.186;8.468;2022-11-14T01:23:40;1.50;;;0.73;;
11082;SDS011;5595;50.186;8.468;2022-11-14T01:26:07;1.90;;;0.50;;
11082;SDS011;5595;50.186;8.468;2022-11-14T01:28:35;0.40;;;0.40;;
11082;SDS011;5595;50.186;8.468;2022-11-14T01:31:08;0.53;;;0.50;;
11082;SDS011;5595;50.186;8.468;2022-11-14T01:33:36;1.70;;;0.53;;
11082;SDS011;5595;50.186;8.468;2022-11-14T01:36:03;0.87;;;0.47;;
11082;SDS011;5595;50.186;8.468;2022-11-14T01:38:31;0.50;;;0.50;;
11082;SDS011;5595;50.186;8.468;2022-11-14T01:40:58;0.50;;;0.40;;
11082;SDS011;5595;50.186;8.468;2022-11-14T01:43:26;1.70;;;0.80;;
11082;SDS011;5595;50.186;8.468;2022-11-14T01:45:56;0.50;;;0.50;;
11082;SDS011;5595;50.186;8.468;2022-11-14T01:48:27;0.57;;;0.57;;
11082;SDS011;5595;50.186;8.468;2022-11-14T01:50:59;1.27;;;0.23;;
11082;SDS011;5595;50.186;8.468;2022-11-14T01:53:30;1.87;;;0.70;;
11082;SDS011;5595;50.186;8.468;2022-11-14T01:55:58;1.27;;;0.50;;
11082;SDS011;5595;50.186;8.468;2022-11-14T01:58:28;1.30;;;0.30;;
11082;SDS011;5595;50.186;8.468;2022-11-14T02:00:56;0.70;;;0.50;;
11082;SDS011;5595;50.186;8.468;2022-11-14T02:03:24;0.57;;;0.50;;
11082;SDS011;5595;50.186;8.468;2022-11-14T02:05:52;1.93;;;0.70;;
11082;SDS011;5595;50.186;8.468;2022-11-14T02:08:20;1.57;;;0.63;;
11082;SDS011;5595;50.186;8.468;2022-11-14T02:10:48;0.30;;;0.30;;
11082;SDS011;5595;50.186;8.468;2022-11-14T02:13:15;0.70;;;0.70;;
11082;SDS011;5595;50.186;8.468;2022-11-14T02:15:42;1.03;;;0.87;;
11082;SDS011;5595;50.186;8.468;2022-11-14T02:18:09;0.47;;;0.33;;
11082;SDS011;5595;50.186;8.468;2022-11-14T02:20:38;0.50;;;0.50;;
11082;SDS011;5595;50.186;8.468;2022-11-14T02:23:07;0.30;;;0.30;;
11082;SDS011;5595;50.186;8.468;2022-11-14T02:25:36;2.97;;;0.63;;
11082;SDS011;5595;50.186;8.468;2022-11-14T02:28:03;0.70;;;0.70;;
11082;SDS011;5595;50.186;8.468;2022-11-14T02:30:32;0.70;;;0.40;;
11082;SDS011;5595;50.186;8.468;2022-11-14T02:32:59;2.33;;;0.40;;
11082;SDS011;5595;50.186;8.468;2022-11-14T02:35:26;0.33;;;0.33;;
11082;SDS011;5595;50.186;8.468;2022-11-14T02:37:54;2.00;;;0.50;;
11082;SDS011;5595;50.186;8.468;2022-11-14T02:40:21;2.30;;;0.77;;
11082;SDS011;5595;50.186;8.468;2022-11-14T02:42:48;0.53;;;0.53;;
11082;SDS011;5595;50.186;8.468;2022-11-14T02:45:15;0.63;;;0.63;;
11082;SDS011;5595;50.186;8.468;2022-11-14T02:47:43;0.47;;;0.40;;
11082;SDS011;5595;50.186;8.468;2022-11-14T02:50:10;1.53;;;0.73;;
11082;SDS011;5595;50.186;8.468;2022-11-14T02:52:37;3.50;;;0.50;;
11082;SDS011;5595;50.186;8.468;2022-11-14T02:55:06;0.70;;;0.63;;
11082;SDS011;5595;50.186;8.468;2022-11-14T02:57:33;1.47;;;1.10;;
11082;SDS011;5595;50.186;8.468;2022-11-14T03:00:00;1.97;;;0.87;;
11082;SDS011;5595;50.186;8.468;2022-11-14T03:02:28;1.00;;;0.70;;
11082;SDS011;5595;50.186;8.468;2022-11-14T03:04:55;0.60;;;0.53;;
11082;SDS011;5595;50.186;8.468;2022-11-14T03:07:21;1.00;;;0.87;;
11082;SDS011;5595;50.186;8.468;2022-11-14T03:09:48;0.73;;;0.63;;
11082;SDS011;5595;50.186;8.468;2022-11-14T03:12:17;1.43;;;0.83;;
11082;SDS011;5595;50.186;8.468;2022-11-14T03:14:45;0.90;;;0.57;;
11082;SDS011;5595;50.186;8.468;2022-11-14T03:17:12;1.20;;;0.73;;
11082;SDS011;5595;50.186;8.468;2022-11-14T03:19:39;1.63;;;0.67;;
11082;SDS011;5595;50.186;8.468;2022-11-14T03:22:06;1.23;;;0.80;;
11082;SDS011;5595;50.186;8.468;2022-11-14T03:24:32;0.93;;;0.70;;
11082;SDS011;5595;50.186;8.468;2022-11-14T03:26:59;0.77;;;0.70;;
11082;SDS011;5595;50.186;8.468;2022-11-14T03:29:27;1.00;;;0.80;;
11082;SDS011;5595;50.186;8.468;2022-11-14T03:31:54;1.30;;;0.87;;
11082;SDS011;5595;50.186;8.468;2022-11-14T03:34:24;0.93;;;0.73;;
11082;SDS011;5595;50.186;8.468;2022-11-14T03:36:50;1.17;;;0.60;;
11082;SDS011;5595;50.186;8.468;2022-11-14T03:39:17;0.80;;;0.80;;
11082;SDS011;5595;50.186;8.468;2022-11-14T03:41:45;1.30;;;0.90;;
11082;SDS011;5595;50.186;8.468;2022-11-14T03:44:12;1.40;;;0.77;;
11082;SDS011;5595;50.186;8.468;2022-11-14T03:46:40;2.83;;;1.10;;
11082;SDS011;5595;50.186;8.468;2022-11-14T03:49:07;0.57;;;0.47;;
11082;SDS011;5595;50.186;8.468;2022-11-14T03:51:34;1.00;;;0.80;;
11082;SDS011;5595;50.186;8.468;2022-11-14T03:54:01;2.10;;;0.50;;
11082;SDS011;5595;50.186;8.468;2022-11-14T03:56:28;0.87;;;0.50;;
11082;SDS011;5595;50.186;8.468;2022-11-14T03:58:54;0.97;;;0.60;;
11082;SDS011;5595;50.186;8.468;2022-11-14T04:01:21;0.80;;;0.67;;
11082;SDS011;5595;50.186;8.468;2022-11-14T04:03:49;1.57;;;0.73;;
11082;SDS011;5595;50.186;8.468;2022-11-14T04:06:16;0.77;;;0.60;;
11082;SDS011;5595;50.186;8.468;2022-11-14T04:08:44;0.80;;;0.50;;
11082;SDS011;5595;50.186;8.468;2022-11-14T04:11:10;0.63;;;0.40;;
11082;SDS011;5595;50.186;8.468;2022-11-14T04:13:37;0.73;;;0.67;;
11082;SDS011;5595;50.186;8.468;2022-11-14T04:16:04;0.67;;;0.57;;
11082;SDS011;5595;50.186;8.468;2022-11-14T04:18:32;1.87;;;0.50;;
11082;SDS011;5595;50.186;8.468;2022-11-14T04:21:00;0.37;;;0.37;;
11082;SDS011;5595;50.186;8.468;2022-11-14T04:23:27;1.00;;;0.80;;
11082;SDS011;5595;50.186;8.468;2022-11-14T04:25:55;1.53;;;1.03;;
11082;SDS011;5595;50.186;8.468;2022-11-14T04:28:22;0.67;;;0.67;;
11082;SDS011;5595;50.186;8.468;2022-11-14T04:30:48;1.47;;;0.83;;
11082;SDS011;5595;50.186;8.468;2022-11-14T04:33:15;1.00;;;0.63;;
11082;SDS011;5595;50.186;8.468;2022-11-14T04:35:42;0.77;;;0.53;;
11082;SDS011;5595;50.186;8.468;2022-11-14T04:38:10;1.03;;;0.97;;
11082;SDS011;5595;50.186;8.468;2022-11-14T04:40:37;0.27;;;0.27;;
11082;SDS011;5595;50.186;8.468;2022-11-14T04:43:04;1.10;;;0.63;;
11082;SDS011;5595;50.186;8.468;2022-11-14T04:45:31;0.50;;;0.50;;
11082;SDS011;5595;50.186;8.468;2022-11-14T04:47:58;1.90;;;0.87;;
11082;SDS011;5595;50.186;8.468;2022-11-14T04:50:25;1.97;;;1.17;;
11082;SDS011;5595;50.186;8.468;2022-11-14T04:52:51;0.57;;;0.57;;
11082;SDS011;5595;50.186;8.468;2022-11-14T04:55:20;0.63;;;0.50;;
11082;SDS011;5595;50.186;8.468;2022-11-14T04:57:47;2.03;;;0.97;;
11082;SDS011;5595;50.186;8.468;2022-11-14T05:00:18;2.73;;;1.33;;
11082;SDS011;5595;50.186;8.468;2022-11-14T05:02:45;1.40;;;0.90;;
11082;SDS011;5595;50.186;8.468;2022-11-14T05:05:11;2.70;;;1.00;;
11082;SDS011;5595;50.186;8.468;2022-11-14T05:07:38;1.77;;;0.80;;
11082;SDS011;5595;50.186;8.468;2022-11-14T05:10:06;2.10;;;1.17;;
11082;SDS011;5595;50.186;8.468;2022-11-14T05:12:35;1.23;;;1.10;;
11082;SDS011;5595;50.186;8.468;2022-11-14T05:15:02;1.63;;;1.30;;
11082;SDS011;5595;50.186;8.468;2022-11-14T05:17:29;0.77;;;0.77;;
11082;SDS011;5595;50.186;8.468;2022-11-14T05:19:56;1.33;;;1.13;;
11082;SDS011;5595;50.186;8.468;2022-11-14T05:22:23;0.70;;;0.70;;
11082;SDS011;5595;50.186;8.468;2022-11-14T05:24:49;1.60;;;0.90;;
11082;SDS011;5595;50.186;8.468;2022-11-14T05:27:16;1.47;;;0.83;;
11082;SDS011;5595;50.186;8.468;2022-11-14T05:29:44;2.77;;;0.60;;
11082;SDS011;5595;50.186;8.468;2022-11-14T05:32:15;0.20;;;0.17;;
11082;SDS011;5595;50.186;8.468;2022-11-14T05:34:42;0.83;;;0.70;;
11082;SDS011;5595;50.186;8.468;2022-11-14T05:37:08;2.07;;;0.53;;
11082;SDS011;5595;50.186;8.468;2022-11-14T05:39:35;1.77;;;0.80;;
11082;SDS011;5595;50.186;8.468;2022-11-14T05:42:02;1.23;;;0.80;;
11082;SDS011;5595;50.186;8.468;2022-11-14T05:44:30;1.60;;;1.00;;
11082;SDS011;5595;50.186;8.468;2022-11-14T05:46:58;1.00;;;0.77;;
11082;SDS011;5595;50.186;8.468;2022-11-14T05:49:25;1.90;;;1.07;;
11082;SDS011;5595;50.186;8.468;2022-11-14T05:51:55;1.80;;;1.43;;
11082;SDS011;5595;50.186;8.468;2022-11-14T05:54:22;2.57;;;1.10;;
11082;SDS011;5595;50.186;8.468;2022-11-14T05:56:49;1.57;;;1.10;;
11082;SDS011;5595;50.186;8.468;2022-11-14T05:59:16;1.43;;;1.10;;
11082;SDS011;5595;50.186;8.468;2022-11-14T06:01:43;0.53;;;0.50;;
11082;SDS011;5595;50.186;8.468;2022-11-14T06:04:12;2.30;;;1.10;;
11082;SDS011;5595;50.186;8.468;2022-11-14T06:06:39;0.67;;;0.63;;
11082;SDS011;5595;50.186;8.468;2022-11-14T06:09:06;0.60;;;0.60;;
11082;SDS011;5595;50.186;8.468;2022-11-14T06:11:33;1.33;;;0.87;;
11082;SDS011;5595;50.186;8.468;2022-11-14T06:14:02;0.90;;;0.90;;
11082;SDS011;5595;50.186;8.468;2022-11-14T06:16:29;0.73;;;0.47;;
11082;SDS011;5595;50.186;8.468;2022-11-14T06:18:56;0.83;;;0.83;;
11082;SDS011;5595;50.186;8.468;2022-11-14T06:21:25;1.80;;;1.17;;
11082;SDS011;5595;50.186;8.468;2022-11-14T06:23:53;1.90;;;1.33;;
11082;SDS011;5595;50.186;8.468;2022-11-14T06:26:20;1.33;;;1.17;;
11082;SDS011;5595;50.186;8.468;2022-11-14T06:28:49;1.80;;;1.27;;
11082;SDS011;5595;50.186;8.468;2022-11-14T06:31:18;4.17;;;1.23;;
11082;SDS011;5595;50.186;8.468;2022-11-14T06:33:46;2.70;;;1.53;;
11082;SDS011;5595;50.186;8.468;2022-11-14T06:36:13;1.93;;;1.47;;
11082;SDS011;5595;50.186;8.468;2022-11-14T06:38:42;1.30;;;1.23;;
11082;SDS011;5595;50.186;8.468;2022-11-14T06:41:10;1.13;;;1.03;;
11082;SDS011;5595;50.186;8.468;2022-11-14T06:43:38;0.93;;;0.87;;
11082;SDS011;5595;50.186;8.468;2022-11-14T06:46:06;2.40;;;1.57;;
11082;SDS011;5595;50.186;8.468;2022-11-14T06:48:34;1.90;;;1.27;;
11082;SDS011;5595;50.186;8.468;2022-11-14T06:51:02;2.13;;;1.20;;
11082;SDS011;5595;50.186;8.468;2022-11-14T06:53:30;1.63;;;1.20;;
11082;SDS011;5595;50.186;8.468;2022-11-14T06:56:01;2.13;;;0.87;;
11082;SDS011;5595;50.186;8.468;2022-11-14T06:58:29;3.00;;;1.23;;
11082;SDS011;5595;50.186;8.468;2022-11-14T07:01:01;0.93;;;0.67;;
11082;SDS011;5595;50.186;8.468;2022-11-14T07:03:29;0.60;;;0.60;;
11082;SDS011;5595;50.186;8.468;2022-11-14T07:05:56;2.07;;;1.87;;
11082;SDS011;5595;50.186;8.468;2022-11-14T07:08:23;1.50;;;1.40;;
11082;SDS011;5595;50.186;8.468;2022-11-14T07:10:50;1.73;;;1.27;;
11082;SDS011;5595;50.186;8.468;2022-11-14T07:13:18;2.10;;;0.93;;
11082;SDS011;5595;50.186;8.468;2022-11-14T07:15:49;1.87;;;1.23;;
11082;SDS011;5595;50.186;8.468;2022-11-14T07:18:17;0.60;;;0.53;;
11082;SDS011;5595;50.186;8.468;2022-11-14T07:20:44;1.93;;;1.57;;
11082;SDS011;5595;50.186;8.468;2022-11-14T07:23:11;2.87;;;0.90;;
11082;SDS011;5595;50.186;8.468;2022-11-14T07:25:38;0.87;;;0.70;;
11082;SDS011;5595;50.186;8.468;2022-11-14T07:28:05;2.07;;;1.50;;
11082;SDS011;5595;50.186;8.468;2022-11-14T07:30:33;0.77;;;0.77;;
11082;SDS011;5595;50.186;8.468;2022-11-14T07:33:00;4.00;;;1.27;;
11082;SDS011;5595;50.186;8.468;2022-11-14T07:35:27;2.27;;;1.67;;
11082;SDS011;5595;50.186;8.468;2022-11-14T07:37:59;2.17;;;1.23;;
11082;SDS011;5595;50.186;8.468;2022-11-14T07:40:26;1.03;;;0.90;;
11082;SDS011;5595;50.186;8.468;2022-11-14T07:42:55;2.03;;;1.57;;
11082;SDS011;5595;50.186;8.468;2022-11-14T07:45:23;2.17;;;1.77;;
11082;SDS011;5595;50.186;8.468;2022-11-14T07:47:54;2.67;;;1.47;;
11082;SDS011;5595;50.186;8.468;2022-11-14T07:50:22;1.80;;;1.47;;
11082;SDS011;5595;50.186;8.468;2022-11-14T07:52:49;3.37;;;1.90;;
11082;SDS011;5595;50.186;8.468;2022-11-14T07:55:16;0.93;;;0.87;;
11082;SDS011;5595;50.186;8.468;2022-11-14T07:57:46;2.93;;;1.53;;
11082;SDS011;5595;50.186;8.468;2022-11-14T08:00:13;1.40;;;1.17;;
11082;SDS011;5595;50.186;8.468;2022-11-14T08:02:41;2.50;;;1.43;;
11082;SDS011;5595;50.186;8.468;2022-11-14T08:05:09;3.43;;;1.67;;
11082;SDS011;5595;50.186;8.468;2022-11-14T08:07:36;0.83;;;0.83;;
11082;SDS011;5595;50.186;8.468;2022-11-14T08:10:03;1.67;;;1.17;;
11082;SDS011;5595;50.186;8.468;2022-11-14T08:12:30;2.10;;;1.03;;
11082;SDS011;5595;50.186;8.468;2022-11-14T08:14:58;1.00;;;0.80;;
11082;SDS011;5595;50.186;8.468;2022-11-14T08:17:25;2.40;;;2.00;;
11082;SDS011;5595;50.186;8.468;2022-11-14T08:19:52;2.53;;;1.90;;
11082;SDS011;5595;50.186;8.468;2022-11-14T08:22:20;1.20;;;1.03;;
11082;SDS011;5595;50.186;8.468;2022-11-14T08:24:47;1.63;;;1.07;;
11082;SDS011;5595;50.186;8.468;2022-11-14T08:27:14;3.20;;;1.60;;
11082;SDS011;5595;50.186;8.468;2022-11-14T08:29:41;2.07;;;1.73;;
11082;SDS011;5595;50.186;8.468;2022-11-14T08:32:08;2.03;;;1.67;;
11082;SDS011;5595;50.186;8.468;2022-11-14T08:34:37;2.83;;;1.53;;
11082;SDS011;5595;50.186;8.468;2022-11-14T08:37:04;4.43;;;1.40;;
11082;SDS011;5595;50.186;8.468;2022-11-14T08:39:32;3.87;;;1.83;;
11082;SDS011;5595;50.186;8.468;2022-11-14T08:41:59;5.23;;;2.27;;
11082;SDS011;5595;50.186;8.468;2022-11-14T08:44:26;1.33;;;0.97;;
11082;SDS011;5595;50.186;8.468;2022-11-14T08:46:52;1.13;;;0.47;;
11082;SDS011;5595;50.186;8.468;2022-11-14T08:49:19;2.53;;;1.23;;
11082;SDS011;5595;50.186;8.468;2022-11-14T08:51:46;2.00;;;1.43;;
11082;SDS011;5595;50.186;8.468;2022-11-14T08:54:13;3.20;;;2.00;;
11082;SDS011;5595;50.186;8.468;2022-11-14T08:56:41;3.40;;;1.50;;
11082;SDS011;5595;50.186;8.468;2022-11-14T08:59:08;1.70;;;1.33;;
11082;SDS011;5595;50.186;8.468;2022-11-14T09:01:35;1.63;;;1.53;;
11082;SDS011;5595;50.186;8.468;2022-11-14T09:04:02;4.73;;;1.87;;
11082;SDS011;5595;50.186;8.468;2022-11-14T09:06:29;2.30;;;1.37;;
11082;SDS011;5595;50.186;8.468;2022-11-14T09:08:56;2.50;;;1.27;;
11082;SDS011;5595;50.186;8.468;2022-11-14T09:11:23;2.83;;;1.67;;
11082;SDS011;5595;50.186;8.468;2022-11-14T09:13:51;7.47;;;2.03;;
11082;SDS011;5595;50.186;8.468;2022-11-14T09:16:20;4.40;;;2.23;;
11082;SDS011;5595;50.186;8.468;2022-11-14T09:18:47;2.17;;;1.10;;
11082;SDS011;5595;50.186;8.468;2022-11-14T09:21:14;2.27;;;1.07;;
11082;SDS011;5595;50.186;8.468;2022-11-14T09:23:41;1.57;;;1.47;;
11082;SDS011;5595;50.186;8.468;2022-11-14T09:26:08;1.63;;;0.93;;
11082;SDS011;5595;50.186;8.468;2022-11-14T09:28:35;3.93;;;1.90;;
11082;SDS011;5595;50.186;8.468;2022-11-14T09:31:04;2.83;;;1.77;;
11082;SDS011;5595;50.186;8.468;2022-11-14T09:33:32;3.23;;;1.47;;
11082;SDS011;5595;50.186;8.468;2022-11-14T09:36:01;2.93;;;1.17;;
11082;SDS011;5595;50.186;8.468;2022-11-14T09:38:29;0.67;;;0.60;;
11082;SDS011;5595;50.186;8.468;2022-11-14T09:40:59;4.77;;;1.37;;
11082;SDS011;5595;50.186;8.468;2022-11-14T09:43:39;0.87;;;0.87;;
11082;SDS011;5595;50.186;8.468;2022-11-14T09:46:20;1.47;;;1.23;;
11082;SDS011;5595;50.186;8.468;2022-11-14T09:48:50;3.23;;;1.67;;
11082;SDS011;5595;50.186;8.468;2022-11-14T09:51:18;1.53;;;1.43;;
11082;SDS011;5595;50.186;8.468;2022-11-14T09:53:49;3.30;;;1.40;;
11082;SDS011;5595;50.186;8.468;2022-11-14T09:56:21;2.80;;;1.30;;
11082;SDS011;5595;50.186;8.468;2022-11-14T09:58:50;1.03;;;0.80;;
11082;SDS011;5595;50.186;8.468;2022-11-14T10:01:23;3.70;;;1.33;;
11082;SDS011;5595;50.186;8.468;2022-11-14T10:03:59;2.50;;;1.43;;
11082;SDS011;5595;50.186;8.468;2022-11-14T10:06:30;5.43;;;1.87;;
11082;SDS011;5595;50.186;8.468;2022-11-14T10:09:21;1.53;;;1.43;;
11082;SDS011;5595;50.186;8.468;2022-11-14T10:12:08;3.93;;;1.83;;
11082;SDS011;5595;50.186;8.468;2022-11-14T10:14:49;1.23;;;1.13;;
11082;SDS011;5595;50.186;8.468;2022-11-14T10:17:32;2.50;;;1.10;;
11082;SDS011;5595;50.186;8.468;2022-11-14T10:20:14;2.93;;;1.47;;
11082;SDS011;5595;50.186;8.468;2022-11-14T10:22:54;1.40;;;1.07;;
11082;SDS011;5595;50.186;8.468;2022-11-14T10:25:32;2.70;;;0.87;;
11082;SDS011;5595;50.186;8.468;2022-11-14T10:28:15;1.53;;;1.10;;
11082;SDS011;5595;50.186;8.468;2022-11-14T10:30:59;2.00;;;1.37;;
11082;SDS011;5595;50.186;8.468;2022-11-14T10:33:34;0.87;;;0.80;;
11082;SDS011;5595;50.186;8.468;2022-11-14T10:36:09;1.73;;;0.87;;
11082;SDS011;5595;50.186;8.468;2022-11-14T10:38:42;1.30;;;1.13;;
11082;SDS011;5595;50.186;8.468;2022-11-14T10:41:16;1.70;;;0.90;;
11082;SDS011;5595;50.186;8.468;2022-11-14T10:43:45;1.77;;;1.00;;
11082;SDS011;5595;50.186;8.468;2022-11-14T10:46:15;1.87;;;1.20;;
11082;SDS011;5595;50.186;8.468;2022-11-14T10:48:46;4.20;;;0.77;;
11082;SDS011;5595;50.186;8.468;2022-11-14T10:51:17;1.90;;;1.23;;
11082;SDS011;5595;50.186;8.468;2022-11-14T10:53:49;3.00;;;1.60;;
11082;SDS011;5595;50.186;8.468;2022-11-14T10:56:19;2.33;;;1.10;;
11082;SDS011;5595;50.186;8.468;2022-11-14T10:58:46;4.70;;;1.47;;
11082;SDS011;5595;50.186;8.468;2022-11-14T11:01:32;3.33;;;1.47;;
11082;SDS011;5595;50.186;8.468;2022-11-14T11:06:57;1.70;;;1.17;;
11082;SDS011;5595;50.186;8.468;2022-11-14T11:10:00;1.47;;;0.40;;
11082;SDS011;5595;50.186;8.468;2022-11-14T11:12:45;2.63;;;1.10;;
11082;SDS011;5595;50.186;8.468;2022-11-14T11:15:13;2.23;;;1.17;;
11082;SDS011;5595;50.186;8.468;2022-11-14T11:17:50;2.07;;;1.40;;
11082;SDS011;5595;50.186;8.468;2022-11-14T11:23:14;2.50;;;1.17;;
11082;SDS011;5595;50.186;8.468;2022-11-14T11:25:44;1.40;;;1.20;;
11082;SDS011;5595;50.186;8.468;2022-11-14T11:28:11;1.67;;;1.40;;
11082;SDS011;5595;50.186;8.468;2022-11-14T11:30:39;3.27;;;1.30;;
11082;SDS011;5595;50.186;8.468;2022-11-14T11:33:21;1.20;;;0.57;;
11082;SDS011;5595;50.186;8.468;2022-11-14T11:35:51;1.83;;;0.90;;
11082;SDS011;5595;50.186;8.468;2022-11-14T11:38:22;2.27;;;0.80;;
11082;SDS011;5595;50.186;8.468;2022-11-14T11:40:53;1.47;;;1.10;;
11082;SDS011;5595;50.186;8.468;2022-11-14T11:43:26;2.37;;;1.27;;
11082;SDS011;5595;50.186;8.468;2022-11-14T11:46:00;1.40;;;1.10;;
11082;SDS011;5595;50.186;8.468;2022-11-14T11:48:33;1.37;;;0.73;;
11082;SDS011;5595;50.186;8.468;2022-11-14T11:51:05;1.20;;;0.80;;
11082;SDS011;5595;50.186;8.468;2022-11-14T11:53:38;1.30;;;0.80;;
11082;SDS011;5595;50.186;8.468;2022-11-14T11:56:09;1.23;;;0.70;;
11082;SDS011;5595;50.186;8.468;2022-11-14T11:58:40;2.30;;;1.17;;
11082;SDS011;5595;50.186;8.468;2022-11-14T12:01:11;1.67;;;0.67;;
11082;SDS011;5595;50.186;8.468;2022-11-14T12:03:40;1.73;;;0.73;;
11082;SDS011;5595;50.186;8.468;2022-11-14T12:06:14;3.27;;;0.97;;
11082;SDS011;5595;50.186;8.468;2022-11-14T12:08:46;0.67;;;0.60;;
11082;SDS011;5595;50.186;8.468;2022-11-14T12:11:26;2.03;;;0.90;;
11082;SDS011;5595;50.186;8.468;2022-11-14T12:14:02;1.10;;;0.90;;
11082;SDS011;5595;50.186;8.468;2022-11-14T12:22:59;2.47;;;0.90;;
11082;SDS011;5595;50.186;8.468;2022-11-14T12:28:49;0.70;;;0.70;;
11082;SDS011;5595;50.186;8.468;2022-11-14T12:31:32;1.17;;;1.03;;
11082;SDS011;5595;50.186;8.468;2022-11-14T12:34:04;1.20;;;0.70;;
11082;SDS011;5595;50.186;8.468;2022-11-14T12:36:38;0.75;;;0.57;;
11082;SDS011;5595;50.186;8.468;2022-11-14T12:39:18;0.87;;;0.70;;
11082;SDS011;5595;50.186;8.468;2022-11-14T12:41:47;0.97;;;0.77;;
11082;SDS011;5595;50.186;8.468;2022-11-14T12:44:18;0.37;;;0.37;;
11082;SDS011;5595;50.186;8.468;2022-11-14T12:47:12;0.93;;;0.67;;
11082;SDS011;5595;50.186;8.468;2022-11-14T12:50:00;1.60;;;1.03;;
11082;SDS011;5595;50.186;8.468;2022-11-14T12:52:46;1.40;;;1.00;;
11082;SDS011;5595;50.186;8.468;2022-11-14T12:58:23;0.87;;;0.87;;
11082;SDS011;5595;50.186;8.468;2022-11-14T13:01:07;0.90;;;0.80;;
11082;SDS011;5595;50.186;8.468;2022-11-14T13:03:56;0.53;;;0.37;;
11082;SDS011;5595;50.186;8.468;2022-11-14T13:06:36;1.83;;;0.83;;
11082;SDS011;5595;50.186;8.468;2022-11-14T13:15:20;0.83;;;0.40;;
11082;SDS011;5595;50.186;8.468;2022-11-14T13:18:11;0.60;;;0.60;;
11082;SDS011;5595;50.186;8.468;2022-11-14T13:21:01;1.10;;;0.67;;
11082;SDS011;5595;50.186;8.468;2022-11-14T13:23:57;0.60;;;0.60;;
11082;SDS011;5595;50.186;8.468;2022-11-14T13:26:37;2.53;;;0.93;;
11082;SDS011;5595;50.186;8.468;2022-11-14T13:29:06;1.10;;;0.67;;
11082;SDS011;5595;50.186;8.468;2022-11-14T13:31:47;0.77;;;0.53;;
11082;SDS011;5595;50.186;8.468;2022-11-14T13:34:27;1.70;;;0.87;;
11082;SDS011;5595;50.186;8.468;2022-11-14T13:37:03;0.40;;;0.40;;
11082;SDS011;5595;50.186;8.468;2022-11-14T13:39:36;0.47;;;0.40;;
11082;SDS011;5595;50.186;8.468;2022-11-14T13:42:12;1.27;;;0.67;;
11082;SDS011;5595;50.186;8.468;2022-11-14T13:45:03;1.20;;;1.07;;
11082;SDS011;5595;50.186;8.468;2022-11-14T13:47:49;0.53;;;0.47;;
11082;SDS011;5595;50.186;8.468;2022-11-14T13:50:48;0.73;;;0.33;;
11082;SDS011;5595;50.186;8.468;2022-11-14T13:53:18;0.60;;;0.60;;
11082;SDS011;5595;50.186;8.468;2022-11-14T13:55:58;1.43;;;0.80;;
11082;SDS011;5595;50.186;8.468;2022-11-14T13:58:34;2.03;;;0.63;;
11082;SDS011;5595;50.186;8.468;2022-11-14T14:01:25;0.93;;;0.60;;
11082;SDS011;5595;50.186;8.468;2022-11-14T14:04:08;0.63;;;0.50;;
11082;SDS011;5595;50.186;8.468;2022-11-14T14:06:48;0.33;;;0.33;;
11082;SDS011;5595;50.186;8.468;2022-11-14T14:09:24;0.87;;;0.80;;
11082;SDS011;5595;50.186;8.468;2022-11-14T14:12:11;0.27;;;0.27;;
11082;SDS011;5595;50.186;8.468;2022-11-14T14:15:02;1.73;;;1.03;;
11082;SDS011;5595;50.186;8.468;2022-11-14T14:17:46;1.00;;;0.43;;
11082;SDS011;5595;50.186;8.468;2022-11-14T14:20:24;0.70;;;0.47;;
11082;SDS011;5595;50.186;8.468;2022-11-14T14:23:00;0.40;;;0.40;;
11082;SDS011;5595;50.186;8.468;2022-11-14T14:25:38;0.47;;;0.40;;
11082;SDS011;5595;50.186;8.468;2022-11-14T14:28:12;1.30;;;0.57;;
11082;SDS011;5595;50.186;8.468;2022-11-14T14:31:02;0.77;;;0.47;;
11082;SDS011;5595;50.186;8.468;2022-11-14T14:33:39;0.57;;;0.23;;
11082;SDS011;5595;50.186;8.468;2022-11-14T14:36:15;0.50;;;0.50;;
11082;SDS011;5595;50.186;8.468;2022-11-14T14:38:47;0.20;;;0.20;;
11082;SDS011;5595;50.186;8.468;2022-11-14T14:41:15;0.40;;;0.20;;
11082;SDS011;5595;50.186;8.468;2022-11-14T14:43:48;0.50;;;0.50;;
11082;SDS011;5595;50.186;8.468;2022-11-14T14:46:24;0.30;;;0.30;;
11082;SDS011;5595;50.186;8.468;2022-11-14T14:48:56;1.47;;;0.40;;
11082;SDS011;5595;50.186;8.468;2022-11-14T14:51:30;0.57;;;0.50;;
11082;SDS011;5595;50.186;8.468;2022-11-14T14:53:58;0.20;;;0.20;;
11082;SDS011;5595;50.186;8.468;2022-11-14T14:56:25;0.47;;;0.40;;
11082;SDS011;5595;50.186;8.468;2022-11-14T14:58:54;0.30;;;0.20;;
11082;SDS011;5595;50.186;8.468;2022-11-14T15:01:21;0.70;;;0.50;;
11082;SDS011;5595;50.186;8.468;2022-11-14T15:03:52;0.83;;;0.57;;
11082;SDS011;5595;50.186;8.468;2022-11-14T15:06:25;1.17;;;0.40;;
11082;SDS011;5595;50.186;8.468;2022-11-14T15:08:55;0.43;;;0.43;;
11082;SDS011;5595;50.186;8.468;2022-11-14T15:11:23;3.23;;;0.57;;
11082;SDS011;5595;50.186;8.468;2022-11-14T15:13:53;0.87;;;0.70;;
11082;SDS011;5595;50.186;8.468;2022-11-14T15:16:25;0.47;;;0.47;;
11082;SDS011;5595;50.186;8.468;2022-11-14T15:18:54;0.90;;;0.57;;
11082;SDS011;5595;50.186;8.468;2022-11-14T15:21:25;0.30;;;0.30;;
11082;SDS011;5595;50.186;8.468;2022-11-14T15:23:56;0.37;;;0.23;;
11082;SDS011;5595;50.186;8.468;2022-11-14T15:26:25;0.70;;;0.50;;
11082;SDS011;5595;50.186;8.468;2022-11-14T15:29:01;0.90;;;0.30;;
11082;SDS011;5595;50.186;8.468;2022-11-14T15:31:32;0.30;;;0.30;;
11082;SDS011;5595;50.186;8.468;2022-11-14T15:34:03;0.33;;;0.30;;
11082;SDS011;5595;50.186;8.468;2022-11-14T15:36:31;0.83;;;0.50;;
11082;SDS011;5595;50.186;8.468;2022-11-14T15:38:59;0.80;;;0.60;;
11082;SDS011;5595;50.186;8.468;2022-11-14T15:41:28;0.93;;;0.30;;
11082;SDS011;5595;50.186;8.468;2022-11-14T15:43:56;0.30;;;0.20;;